createdAt,value
2023-03-22T00:01:19.548Z,2.80
2023-03-22T00:03:53.108Z,3.10
2023-03-22T00:06:27.084Z,3.65
2023-03-22T00:08:59.412Z,3.28
2023-03-22T00:11:31.709Z,3.10
2023-03-22T00:14:03.607Z,3.97
2023-03-22T00:16:36.768Z,3.33
2023-03-22T00:19:09.469Z,2.80
2023-03-22T00:21:41.344Z,3.20
2023-03-22T00:24:16.820Z,3.00
2023-03-22T00:26:48.775Z,2.80
2023-03-22T00:29:44.227Z,3.10
2023-03-22T00:32:16.101Z,3.08
2023-03-22T00:34:48.922Z,2.63
2023-03-22T00:37:21.236Z,3.10
2023-03-22T00:39:53.521Z,2.85
2023-03-22T00:42:27.232Z,3.38
2023-03-22T00:44:59.534Z,3.78
2023-03-22T00:47:33.356Z,3.83
2023-03-22T00:50:08.245Z,3.45
2023-03-22T00:52:40.398Z,3.33
2023-03-22T00:55:13.150Z,3.60
2023-03-22T00:57:45.060Z,3.38
2023-03-22T01:00:19.048Z,3.30
2023-03-22T01:02:53.722Z,3.08
2023-03-22T01:05:28.782Z,3.03
2023-03-22T01:08:08.619Z,3.55
2023-03-22T01:10:43.042Z,3.75
2023-03-22T01:13:18.028Z,3.20
2023-03-22T01:15:51.663Z,3.50
2023-03-22T01:18:24.675Z,3.78
2023-03-22T01:20:57.029Z,3.40
2023-03-22T01:23:30.266Z,3.38
2023-03-22T01:26:02.613Z,3.10
2023-03-22T01:28:35.620Z,3.47
2023-03-22T01:31:08.033Z,2.78
2023-03-22T01:33:41.484Z,2.97
2023-03-22T01:36:14.344Z,3.55
2023-03-22T01:38:47.568Z,3.33
2023-03-22T01:41:20.108Z,3.42
2023-03-22T01:44:22.351Z,3.38
2023-03-22T01:46:56.123Z,3.23
2023-03-22T01:49:33.958Z,3.42
2023-03-22T01:52:12.550Z,3.15
2023-03-22T01:55:00.266Z,3.65
2023-03-22T01:57:45.389Z,3.45
2023-03-22T02:00:26.133Z,3.10
2023-03-22T02:03:49.513Z,3.17
2023-03-22T02:06:22.629Z,3.53
2023-03-22T02:09:01.080Z,3.10
2023-03-22T02:12:06.443Z,3.40
2023-03-22T02:14:58.070Z,3.83
2023-03-22T02:18:18.928Z,3.38
2023-03-22T02:21:29.267Z,3.50
2023-03-22T02:24:59.310Z,3.75
2023-03-22T02:28:10.160Z,3.40
2023-03-22T02:35:21.557Z,3.00
2023-03-22T02:38:15.572Z,3.40
2023-03-22T02:41:09.856Z,3.17
2023-03-22T02:44:04.479Z,3.03
2023-03-22T02:47:05.288Z,3.37
2023-03-22T02:49:56.009Z,3.80
2023-03-22T02:52:53.224Z,3.50
2023-03-22T02:55:48.908Z,3.60
2023-03-22T02:58:39.765Z,3.20
2023-03-22T03:01:40.047Z,3.23
2023-03-22T03:04:27.187Z,3.90
2023-03-22T03:07:09.367Z,3.08
2023-03-22T03:09:44.505Z,2.80
2023-03-22T03:12:24.303Z,3.15
2023-03-22T03:14:59.285Z,2.90
2023-03-22T03:18:27.432Z,2.85
2023-03-22T03:21:19.526Z,2.83
2023-03-22T03:24:29.268Z,3.15
2023-03-22T03:27:10.668Z,2.90
2023-03-22T03:29:59.928Z,3.10
2023-03-22T03:32:56.055Z,2.70
2023-03-22T03:35:49.683Z,2.78
2023-03-22T03:38:28.833Z,2.85
2023-03-22T03:41:09.335Z,2.63
2023-03-22T03:43:43.805Z,2.93
2023-03-22T03:46:16.407Z,3.25
2023-03-22T03:48:52.507Z,2.80
2023-03-22T03:51:26.570Z,2.60
2023-03-22T03:53:59.532Z,2.60
2023-03-22T03:56:31.503Z,2.90
2023-03-22T03:59:04.663Z,2.53
2023-03-22T04:01:37.348Z,2.83
2023-03-22T04:04:27.115Z,3.25
2023-03-22T04:07:07.178Z,2.70
2023-03-22T04:09:42.624Z,2.50
2023-03-22T04:12:28.909Z,2.80
2023-03-22T04:15:22.718Z,2.42
2023-03-22T04:17:59.738Z,3.22
2023-03-22T04:20:35.378Z,3.13
2023-03-22T04:23:11.006Z,3.10
2023-03-22T04:25:50.954Z,2.97
2023-03-22T04:28:33.780Z,2.95
2023-03-22T04:31:07.350Z,3.20
2023-03-22T04:34:06.002Z,2.90
2023-03-22T04:37:02.829Z,2.63
2023-03-22T04:39:36.937Z,3.00
2023-03-22T04:42:35.065Z,2.92
2023-03-22T04:45:20.609Z,2.78
2023-03-22T04:48:00.690Z,3.10
2023-03-22T04:50:33.493Z,3.30
2023-03-22T04:53:10.262Z,2.55
2023-03-22T04:55:43.121Z,3.13
2023-03-22T04:58:16.909Z,3.30
2023-03-22T05:00:49.744Z,2.88
2023-03-22T05:03:23.011Z,3.00
2023-03-22T05:05:59.586Z,2.72
2023-03-22T05:08:40.811Z,3.35
2023-03-22T05:11:20.313Z,2.78
2023-03-22T05:14:05.535Z,3.40
2023-03-22T05:16:40.609Z,2.97
2023-03-22T05:19:14.356Z,3.25
2023-03-22T05:21:57.849Z,3.35
2023-03-22T05:24:41.185Z,3.03
2023-03-22T05:27:17.816Z,3.10
2023-03-22T05:29:52.672Z,4.93
2023-03-22T05:32:30.160Z,3.03
2023-03-22T05:35:05.533Z,2.97
2023-03-22T05:37:42.474Z,3.15
2023-03-22T05:40:15.534Z,3.03
2023-03-22T05:42:48.752Z,2.93
2023-03-22T05:45:27.386Z,3.25
2023-03-22T05:48:11.775Z,5.22
2023-03-22T05:50:44.706Z,2.50
2023-03-22T05:53:17.218Z,3.15
2023-03-22T05:56:01.167Z,3.77
2023-03-22T05:58:36.861Z,3.22
2023-03-22T06:01:13.119Z,3.78
2023-03-22T06:03:50.693Z,3.50
2023-03-22T06:06:36.434Z,3.17
2023-03-22T06:09:17.955Z,2.33
2023-03-22T06:11:55.838Z,3.80
2023-03-22T06:14:28.476Z,2.88
2023-03-22T06:17:17.805Z,2.80
2023-03-22T06:19:52.939Z,2.83
2023-03-22T06:22:26.878Z,3.10
2023-03-22T06:24:59.415Z,2.70
2023-03-22T06:27:40.977Z,2.88
2023-03-22T06:30:13.486Z,2.90
2023-03-22T06:33:06.914Z,2.55
2023-03-22T06:35:43.413Z,3.00
2023-03-22T06:38:21.062Z,2.72
2023-03-22T06:40:53.032Z,3.28
2023-03-22T06:43:26.242Z,3.10
2023-03-22T06:46:06.221Z,2.65
2023-03-22T06:48:48.420Z,2.80
2023-03-22T06:51:21.724Z,2.58
2023-03-22T06:53:56.540Z,2.80
2023-03-22T06:56:28.983Z,2.67
2023-03-22T06:59:01.721Z,3.60
2023-03-22T07:01:34.433Z,2.77
2023-03-22T07:04:07.749Z,3.13
2023-03-22T07:06:40.126Z,2.63
2023-03-22T07:09:13.158Z,2.75
2023-03-22T07:11:45.210Z,2.95
2023-03-22T07:14:18.432Z,2.73
2023-03-22T07:17:14.262Z,2.65
2023-03-22T07:19:47.110Z,2.33
2023-03-22T07:22:22.295Z,2.63
2023-03-22T07:25:00.588Z,2.60
2023-03-22T07:27:36.384Z,2.65
2023-03-22T07:30:11.098Z,4.75
2023-03-22T07:32:48.155Z,3.20
2023-03-22T07:35:20.942Z,3.25
2023-03-22T07:37:55.012Z,3.00
2023-03-22T07:40:33.996Z,3.17
2023-03-22T07:43:06.763Z,2.72
2023-03-22T07:45:59.914Z,3.20
2023-03-22T07:48:50.727Z,2.70
2023-03-22T07:51:55.828Z,2.70
2023-03-22T07:54:33.928Z,2.42
2023-03-22T07:57:11.305Z,2.60
2023-03-22T07:59:49.728Z,2.85
2023-03-22T08:02:23.468Z,3.08
2023-03-22T08:04:58.492Z,3.00
2023-03-22T08:07:36.626Z,2.78
2023-03-22T08:10:09.404Z,2.73
2023-03-22T08:12:43.219Z,2.38
2023-03-22T08:15:25.460Z,2.85
2023-03-22T08:17:59.134Z,2.90
2023-03-22T08:20:39.429Z,2.65
2023-03-22T08:23:17.535Z,3.60
2023-03-22T08:26:01.515Z,2.40
2023-03-22T08:28:34.385Z,2.97
2023-03-22T08:31:17.612Z,2.22
2023-03-22T08:33:52.600Z,2.20
2023-03-22T08:36:24.699Z,2.40
2023-03-22T08:39:05.704Z,2.00
2023-03-22T08:41:48.985Z,2.60
2023-03-22T08:44:21.847Z,1.90
2023-03-22T08:46:54.294Z,2.42
2023-03-22T08:49:27.622Z,2.07
2023-03-22T08:52:07.390Z,2.28
2023-03-22T08:55:17.901Z,1.83
2023-03-22T08:57:52.560Z,2.25
2023-03-22T09:00:47.773Z,1.85
2023-03-22T09:03:27.219Z,2.30
2023-03-22T09:06:00.109Z,1.95
2023-03-22T09:08:36.168Z,1.63
2023-03-22T09:11:18.014Z,1.60
2023-03-22T09:13:52.115Z,1.90
2023-03-22T09:16:25.913Z,1.60
2023-03-22T09:18:58.131Z,1.92
2023-03-22T09:21:31.845Z,1.67
2023-03-22T09:24:12.891Z,2.22
2023-03-22T09:26:50.406Z,1.95
2023-03-22T09:29:24.181Z,2.00
2023-03-22T09:31:57.128Z,2.10
2023-03-22T09:34:34.499Z,2.05
2023-03-22T09:37:08.160Z,2.20
2023-03-22T09:39:49.337Z,1.95
2023-03-22T09:42:45.005Z,1.90
2023-03-22T09:45:30.112Z,1.70
2023-03-22T09:48:08.568Z,1.80
2023-03-22T09:50:48.059Z,1.90
2023-03-22T09:53:24.869Z,1.98
2023-03-22T09:56:33.236Z,2.00
2023-03-22T09:59:36.510Z,2.65
2023-03-22T10:02:41.144Z,1.70
2023-03-22T10:05:29.565Z,1.77
2023-03-22T10:08:49.731Z,1.70
2023-03-22T10:11:37.317Z,1.83
2023-03-22T10:14:23.454Z,1.92
2023-03-22T10:16:59.637Z,1.98
2023-03-22T10:19:49.698Z,2.00
2023-03-22T10:22:30.210Z,1.95
2023-03-22T10:25:06.089Z,2.10
2023-03-22T10:27:38.937Z,2.20
2023-03-22T10:30:21.289Z,1.90
2023-03-22T10:33:16.954Z,2.00
2023-03-22T10:35:49.907Z,2.50
2023-03-22T10:38:27.740Z,1.90
2023-03-22T10:41:02.238Z,1.75
2023-03-22T10:43:59.434Z,1.95
2023-03-22T10:46:39.657Z,2.10
2023-03-22T10:49:33.269Z,2.30
2023-03-22T10:52:39.602Z,2.67
2023-03-22T10:55:44.577Z,2.08
2023-03-22T10:58:20.428Z,1.70
2023-03-22T11:00:57.900Z,2.40
2023-03-22T11:03:39.135Z,1.80
2023-03-22T11:06:37.592Z,1.80
2023-03-22T11:09:17.369Z,2.22
2023-03-22T11:15:33.367Z,1.70
2023-03-22T11:18:17.927Z,2.20
2023-03-22T11:21:07.675Z,1.73
2023-03-22T11:23:51.093Z,1.75
2023-03-22T11:26:35.885Z,1.70
2023-03-22T11:29:19.662Z,2.22
2023-03-22T11:32:00.000Z,2.33
2023-03-22T11:34:33.813Z,2.10
2023-03-22T11:37:08.515Z,2.63
2023-03-22T11:39:49.931Z,2.22
2023-03-22T11:42:24.621Z,1.90
2023-03-22T11:44:57.626Z,2.50
2023-03-22T11:47:38.513Z,2.60
2023-03-22T11:50:32.359Z,2.22
2023-03-22T11:53:19.590Z,1.92
2023-03-22T11:55:54.706Z,2.30
2023-03-22T11:59:05.163Z,2.15
2023-03-22T12:01:46.791Z,1.80
2023-03-22T12:04:29.589Z,1.80
2023-03-22T12:07:07.005Z,2.10
2023-03-22T12:09:54.053Z,2.10
2023-03-22T12:12:39.273Z,2.40
2023-03-22T12:15:30.368Z,2.20
2023-03-22T12:18:10.080Z,2.30
2023-03-22T12:20:44.074Z,2.58
2023-03-22T12:23:23.143Z,2.28
2023-03-22T12:29:15.765Z,2.20
2023-03-22T12:32:04.353Z,2.65
2023-03-22T12:34:42.107Z,2.17
2023-03-22T12:37:37.860Z,2.30
2023-03-22T12:40:39.886Z,1.90
2023-03-22T12:46:43.067Z,2.03
2023-03-22T12:49:36.930Z,2.33
2023-03-22T12:52:22.513Z,2.28
2023-03-22T12:54:56.657Z,2.10
2023-03-22T12:57:29.806Z,2.00
2023-03-22T13:00:13.590Z,1.90
2023-03-22T13:06:09.575Z,2.28
2023-03-22T13:09:18.166Z,2.47
2023-03-22T13:12:16.164Z,2.17
2023-03-22T13:14:52.083Z,2.40
2023-03-22T13:17:23.941Z,2.80
2023-03-22T13:20:12.698Z,2.10
2023-03-22T13:22:47.924Z,2.08
2023-03-22T13:25:20.868Z,2.13
2023-03-22T13:28:06.639Z,2.00
2023-03-22T13:30:54.054Z,2.05
2023-03-22T13:33:29.448Z,1.88
2023-03-22T13:36:26.667Z,1.98
2023-03-22T13:39:04.929Z,1.80
2023-03-22T13:41:38.699Z,1.77
2023-03-22T13:44:37.787Z,1.95
2023-03-22T13:47:44.013Z,2.22
2023-03-22T13:50:23.840Z,2.20
2023-03-22T13:53:21.529Z,1.80
2023-03-22T13:55:54.942Z,1.90
2023-03-22T13:58:46.711Z,2.05
2023-03-22T14:01:38.708Z,2.42
2023-03-22T14:04:22.436Z,2.13
2023-03-22T14:07:05.307Z,1.70
2023-03-22T14:09:49.668Z,1.70
2023-03-22T14:12:49.420Z,2.25
2023-03-22T14:15:31.627Z,2.13
2023-03-22T14:18:32.430Z,2.30
2023-03-22T14:21:09.989Z,2.20
